createdAt,value
2022-12-16T00:04:21.385Z,-0.48
2022-12-16T00:09:24.201Z,-0.70
2022-12-16T00:14:29.174Z,-0.55
2022-12-16T00:19:32.617Z,-0.58
2022-12-16T00:24:35.420Z,-0.58
2022-12-16T00:29:39.545Z,-0.48
2022-12-16T00:34:42.397Z,-0.65
2022-12-16T00:39:45.191Z,-0.57
2022-12-16T00:44:49.360Z,-0.57
2022-12-16T00:49:52.165Z,-0.47
2022-12-16T00:54:55.068Z,-0.58
2022-12-16T00:59:59.202Z,-0.51
2022-12-16T01:05:02.098Z,-0.53
2022-12-16T01:10:06.363Z,-0.54
2022-12-16T01:15:13.091Z,-0.48
2022-12-16T01:20:15.873Z,-0.54
2022-12-16T01:25:18.776Z,-0.55
2022-12-16T01:30:24.245Z,-0.58
2022-12-16T01:35:54.786Z,-0.51
2022-12-16T01:40:51.566Z,-0.61
2022-12-16T01:46:03.439Z,-0.62
2022-12-16T01:51:09.387Z,-0.55
2022-12-16T01:56:15.516Z,-0.58
2022-12-16T02:01:19.798Z,-0.91
2022-12-16T02:06:22.704Z,-0.75
2022-12-16T02:11:40.383Z,-0.94
2022-12-16T02:16:52.184Z,-1.26
2022-12-16T02:22:07.542Z,-1.33
2022-12-16T02:27:40.485Z,-1.50
2022-12-16T02:32:54.656Z,-1.49
2022-12-16T02:38:06.639Z,-1.70
2022-12-16T02:43:17.219Z,-1.86
2022-12-16T02:48:21.487Z,-2.03
2022-12-16T02:53:24.562Z,-2.15
2022-12-16T02:58:37.036Z,-1.95
2022-12-16T03:03:47.146Z,-1.94
2022-12-16T03:08:54.317Z,-2.01
2022-12-16T03:13:58.702Z,-2.13
2022-12-16T03:19:08.138Z,-2.32
2022-12-16T03:24:13.778Z,-2.38
2022-12-16T03:29:23.563Z,-2.26
2022-12-16T03:34:34.395Z,-2.18
2022-12-16T03:39:42.981Z,-2.36
2022-12-16T03:44:48.847Z,-2.28
2022-12-16T03:49:53.002Z,-2.57
2022-12-16T03:54:55.839Z,-2.49
2022-12-16T03:59:59.040Z,-2.68
2022-12-16T04:05:03.163Z,-2.73
2022-12-16T04:10:07.397Z,-2.72
2022-12-16T04:15:28.577Z,-2.57
2022-12-16T04:20:52.015Z,-2.38
2022-12-16T04:25:57.898Z,-2.14
2022-12-16T04:31:00.898Z,-2.30
2022-12-16T04:36:23.421Z,-2.42
2022-12-16T04:41:43.516Z,-2.63
2022-12-16T04:47:03.852Z,-2.81
2022-12-16T04:52:25.773Z,-2.82
2022-12-16T04:57:46.186Z,-2.36
2022-12-16T05:03:07.641Z,-2.29
2022-12-16T05:08:29.291Z,-2.53
2022-12-16T05:13:49.603Z,-2.52
2022-12-16T05:19:10.167Z,-2.69
2022-12-16T05:24:33.660Z,-2.88
2022-12-16T05:29:54.112Z,-2.99
2022-12-16T05:35:14.545Z,-2.82
2022-12-16T05:40:36.362Z,-2.90
2022-12-16T05:45:58.110Z,-2.65
2022-12-16T05:51:18.182Z,-2.72
2022-12-16T05:56:39.991Z,-2.55
2022-12-16T06:02:00.234Z,-2.64
2022-12-16T06:07:20.542Z,-2.53
2022-12-16T06:12:42.539Z,-2.17
2022-12-16T06:18:09.629Z,-2.30
2022-12-16T06:23:29.999Z,-2.45
2022-12-16T06:28:51.450Z,-2.50
2022-12-16T06:34:12.066Z,-2.63
2022-12-16T06:39:33.609Z,-2.99
2022-12-16T06:44:56.373Z,-2.63
2022-12-16T06:50:17.183Z,-2.65
2022-12-16T06:55:37.369Z,-2.40
2022-12-16T07:00:59.315Z,-1.97
2022-12-16T07:06:19.402Z,-2.00
2022-12-16T07:11:39.750Z,-1.89
2022-12-16T07:17:01.203Z,-1.95
2022-12-16T07:22:22.359Z,-1.91
2022-12-16T07:27:42.628Z,-1.95
2022-12-16T07:33:08.292Z,-2.02
2022-12-16T07:38:28.594Z,-1.80
2022-12-16T07:43:48.778Z,-1.83
2022-12-16T07:49:10.556Z,-1.73
2022-12-16T07:54:31.947Z,-1.67
2022-12-16T07:59:54.281Z,-1.72
2022-12-16T08:05:15.814Z,-1.39
2022-12-16T08:10:36.173Z,-1.20
2022-12-16T08:15:56.678Z,-1.13
2022-12-16T08:21:18.322Z,-0.96
2022-12-16T08:26:39.072Z,-0.73
2022-12-16T08:31:59.689Z,-0.80
2022-12-16T08:37:21.835Z,-0.80
2022-12-16T08:42:42.317Z,-0.66
2022-12-16T08:48:02.570Z,-0.41
2022-12-16T08:53:24.624Z,-0.33
2022-12-16T08:58:44.787Z,-0.14
2022-12-16T09:04:16.643Z,-0.14
2022-12-16T09:09:40.708Z,0.14
2022-12-16T09:15:00.890Z,0.25
2022-12-16T09:20:21.290Z,0.31
2022-12-16T09:25:42.733Z,0.08
2022-12-16T09:31:02.949Z,-0.02
2022-12-16T09:36:23.536Z,-0.05
2022-12-16T09:41:59.549Z,-0.09
2022-12-16T09:47:29.278Z,-0.14
2022-12-16T09:52:54.929Z,-0.18
2022-12-16T09:58:17.956Z,-0.08
2022-12-16T10:03:43.090Z,-0.02
2022-12-16T10:09:11.986Z,-0.22
2022-12-16T10:14:42.368Z,-0.05
2022-12-16T10:20:13.495Z,-0.15
2022-12-16T10:25:44.425Z,-0.29
2022-12-16T10:31:07.194Z,-0.25
2022-12-16T10:36:32.519Z,-0.16
2022-12-16T10:41:54.722Z,-0.22
2022-12-16T10:47:17.532Z,-0.14
2022-12-16T10:53:03.455Z,-0.23
2022-12-16T10:58:35.893Z,-0.20
2022-12-16T11:03:59.125Z,-0.13
2022-12-16T11:09:48.460Z,-0.19
2022-12-16T11:15:29.323Z,-0.30
2022-12-16T11:21:32.797Z,-0.38
2022-12-16T11:27:35.542Z,-0.28
2022-12-16T11:33:02.458Z,-0.36
2022-12-16T11:38:49.074Z,-0.22
2022-12-16T11:44:11.249Z,-0.33
2022-12-16T11:49:39.371Z,-0.25
2022-12-16T11:55:12.821Z,-0.24
2022-12-16T12:00:35.019Z,-0.17
2022-12-16T12:05:59.751Z,-0.14
2022-12-16T12:11:32.196Z,-0.17
2022-12-16T12:17:05.809Z,-0.04
2022-12-16T12:22:33.187Z,-0.18
2022-12-16T12:28:06.715Z,-0.30
2022-12-16T12:33:49.156Z,-0.20
2022-12-16T12:39:21.252Z,-0.01
2022-12-16T12:44:57.510Z,0.12
2022-12-16T12:50:23.418Z,0.18
2022-12-16T12:55:53.589Z,0.35
2022-12-16T13:01:17.870Z,0.45
2022-12-16T13:06:38.755Z,0.35
2022-12-16T13:12:37.623Z,-0.02
2022-12-16T13:18:39.130Z,0.47
2022-12-16T13:24:01.425Z,0.80
2022-12-16T13:29:36.689Z,0.43
2022-12-16T13:34:58.211Z,0.33
2022-12-16T13:40:25.182Z,0.21
2022-12-16T13:45:51.016Z,-0.14
2022-12-16T13:51:18.933Z,-0.12
2022-12-16T13:56:45.008Z,-0.17
2022-12-16T14:02:11.776Z,-0.43
2022-12-16T14:07:45.737Z,-0.61
2022-12-16T14:13:15.037Z,-0.37
2022-12-16T14:18:46.203Z,-0.40
2022-12-16T14:24:11.966Z,-0.46
2022-12-16T14:29:39.760Z,-0.38
2022-12-16T14:34:59.819Z,-0.77
2022-12-16T14:40:22.670Z,-1.05
2022-12-16T14:45:48.010Z,-1.20
2022-12-16T14:51:08.215Z,-1.35
2022-12-16T14:56:34.666Z,-1.35
2022-12-16T15:01:54.983Z,-1.33
2022-12-16T15:07:15.832Z,-1.50
2022-12-16T15:12:41.152Z,-1.20
2022-12-16T15:18:07.064Z,-1.10
2022-12-16T15:23:39.279Z,-1.18
2022-12-16T15:29:02.875Z,-0.96
2022-12-16T15:34:40.636Z,-0.69
2022-12-16T15:40:01.237Z,-0.47
2022-12-16T15:45:24.110Z,-0.48
2022-12-16T15:50:46.458Z,-0.31
2022-12-16T15:56:14.380Z,-0.40
2022-12-16T16:01:56.314Z,-0.71
2022-12-16T16:07:20.349Z,-0.62
2022-12-16T16:12:42.273Z,-0.27
2022-12-16T16:18:07.390Z,-0.52
2022-12-16T16:23:28.062Z,-0.61
2022-12-16T16:28:48.574Z,-0.42
2022-12-16T16:34:10.495Z,-0.31
2022-12-16T16:39:30.972Z,-0.24
2022-12-16T16:44:51.161Z,0.02
2022-12-16T16:50:18.981Z,-0.21
2022-12-16T16:55:42.766Z,-0.19
2022-12-16T17:01:02.980Z,-0.25
2022-12-16T17:06:25.186Z,-0.24
2022-12-16T17:11:47.385Z,-0.32
2022-12-16T17:17:07.710Z,-0.37
2022-12-16T17:22:29.403Z,-0.33
2022-12-16T17:27:49.558Z,-0.41
2022-12-16T17:33:09.932Z,-0.54
2022-12-16T17:38:37.703Z,-0.37
2022-12-16T17:43:57.939Z,-0.19
2022-12-16T17:49:18.389Z,-0.08
2022-12-16T17:54:40.592Z,-0.04
2022-12-16T18:00:04.531Z,-0.14
2022-12-16T18:05:38.876Z,-0.07
2022-12-16T18:11:04.748Z,-0.16
2022-12-16T18:16:25.109Z,-0.08
2022-12-16T18:21:45.379Z,-0.04
2022-12-16T18:27:07.119Z,-0.14
2022-12-16T18:32:35.086Z,-0.30
2022-12-16T18:37:55.527Z,-0.24
2022-12-16T18:43:20.107Z,-0.01
2022-12-16T18:48:40.342Z,-0.11
2022-12-16T18:54:00.565Z,-0.01
2022-12-16T18:59:22.454Z,-0.17
2022-12-16T19:04:43.062Z,-0.06
2022-12-16T19:10:03.279Z,-0.11
2022-12-16T19:15:26.670Z,-0.27
2022-12-16T19:20:46.917Z,-0.24
2022-12-16T19:26:07.139Z,-0.19
2022-12-16T19:31:32.664Z,-0.08
2022-12-16T19:36:53.130Z,-0.17
2022-12-16T19:42:13.925Z,-0.02
2022-12-16T19:47:35.844Z,-0.04
2022-12-16T19:52:56.189Z,-0.10
2022-12-16T19:58:27.795Z,0.00
2022-12-16T20:03:50.270Z,0.07
2022-12-16T20:09:11.619Z,0.12
2022-12-16T20:14:31.811Z,-0.03
2022-12-16T20:19:53.399Z,-0.10
2022-12-16T20:25:16.696Z,-0.10
2022-12-16T20:30:37.541Z,-0.04
2022-12-16T20:36:14.007Z,0.15
2022-12-16T20:41:34.593Z,0.04
2022-12-16T20:52:37.491Z,-0.08
2022-12-16T20:57:57.982Z,0.11
2022-12-16T21:03:18.819Z,0.10
2022-12-16T21:08:40.256Z,0.03
2022-12-16T21:13:57.007Z,-0.09
2022-12-16T21:14:42.531Z,-0.01
2022-12-16T21:19:17.521Z,-0.13
2022-12-16T21:24:39.072Z,0.01
2022-12-16T21:29:59.371Z,-0.10
2022-12-16T21:35:19.658Z,0.00
2022-12-16T21:40:43.610Z,-0.12
2022-12-16T21:46:11.266Z,-0.05
2022-12-16T21:51:32.515Z,-0.26
2022-12-16T21:56:56.320Z,-0.31
2022-12-16T22:02:17.594Z,-0.54
2022-12-16T22:07:38.025Z,-0.66
2022-12-16T22:12:59.526Z,-0.57
2022-12-16T22:18:20.321Z,-0.64
2022-12-16T22:23:41.065Z,-0.91
2022-12-16T22:29:03.895Z,-0.91
2022-12-16T22:34:25.622Z,-1.10
2022-12-16T22:39:45.891Z,-1.26
2022-12-16T22:45:07.246Z,-1.33
2022-12-16T22:50:27.993Z,-1.46
2022-12-16T22:55:48.324Z,-1.45
2022-12-16T23:01:09.852Z,-1.39
2022-12-16T23:06:30.342Z,-1.58
2022-12-16T23:11:53.403Z,-1.64
2022-12-16T23:17:18.567Z,-1.60
2022-12-16T23:22:38.790Z,-1.74
2022-12-16T23:27:58.968Z,-1.75
2022-12-16T23:33:21.423Z,-1.75
2022-12-16T23:38:41.529Z,-1.82
2022-12-16T23:44:02.230Z,-1.95
2022-12-16T23:49:24.052Z,-2.00
2022-12-16T23:54:44.340Z,-2.04
